Melilla, Spain

12:04 PM CEST on September 23, 2014 (GMT +0200)
EL REAL | Change Station
CLOSE
Current Station
Personal Weather Station
Location: Melilla, MELILLA
Elevation: 33 ft
Nearby Weather Stations

Elev 33 ft 35.27 °N, 2.94 °W | Updated 1 second ago

Clear
Clear
82.8 °F
Feels Like 84 °F
N
2.7
Wind Variable Wind from ESE
Gusts 6.3 mph

Today
High -- | Low -- °F
--% Chance of Precip.
Yesterday
High -- | Low -- °F
Precip. -- in
8:00 AM 8:07 PM
Waning Crescent, 1% visible
Pressure 30.04 in
Visibility -9999.0 miles
Clouds
Heat Index 84 °F
Dew Point 64 °F
Humidity 54%
Rainfall 0.00 in
Snow Depth Not available.
UV 0.0 out of 12
Pollen Not available.
Air Quality Not available.
Flu Activity Not available.
METAR GMTA 231000Z 36004KT 330V040 CAVOK 24/18 Q1017 NOSIG

More Conditions Fewer Conditions

Pressure 30.04 in
Visibility -9999.0 miles
Clouds
Heat Index 84 °F
Dew Point 64 °F
Humidity 54%
Rainfall 0.00 in
Snow Depth Not available.
UV 0.0 out of 12
Pollen Not available.
Air Quality Not available.
Flu Activity Not available.
METAR GMTA 231000Z 36004KT 330V040 CAVOK 24/18 Q1017 NOSIG

More Conditions Fewer Conditions

10-Day Weather Forecast

Almanac

Astronomy

Sep. 23, 2014 Rise Set
Actual Time 8:00 AM CEST 8:07 PM CEST
Civil Twilight 7:35 AM CEST 8:32 PM CEST
Nautical Twilight 7:05 AM CEST 9:02 PM CEST
Astronomical Twilight 6:35 AM CEST 9:32 PM CEST
Moon 7:12 AM CEST 7:39 PM CEST
Length of Visible Light 12h 57m
Length of Day
12h 07m
Tomorrow will be 2m 12s shorter.
Waning Crescent, 1% of the Moon is Illuminated
Today
Waning Crescent
Sep 24
New
Oct 1
First Quarter
Oct 8
Full
Oct 15
Last Quarter

Yesterday's Extremes

Country Highs Country Lows

Community

WunderPhotos

Upload Photos

1,755,645 photos uploaded!

Nearby

Snow Depth

Not available.

Earthquake Activity

City Distance Mag. Time & Date
No recent earthquake activity has been reported nearby.
Minimum magnitude displayed is 2.5.

Coastal Water Temperatures

Place Temperature
No Stations Reporting

Nearby Weather Stations